createdAt,value
2022-07-31T00:00:26.899Z,24.89
2022-07-31T00:02:55.257Z,24.93
2022-07-31T00:05:23.882Z,24.94
2022-07-31T00:07:52.271Z,24.87
2022-07-31T00:10:20.429Z,24.88
2022-07-31T00:12:49.839Z,24.85
2022-07-31T00:15:18.010Z,24.84
2022-07-31T00:17:46.485Z,24.83
2022-07-31T00:20:16.942Z,24.77
2022-07-31T00:22:46.528Z,24.70
2022-07-31T00:25:16.335Z,24.74
2022-07-31T00:27:45.135Z,24.66
2022-07-31T00:30:17.050Z,24.67
2022-07-31T00:32:45.396Z,24.66
2022-07-31T00:35:14.901Z,24.71
2022-07-31T00:37:44.384Z,24.68
2022-07-31T00:40:15.696Z,24.67
2022-07-31T00:42:43.919Z,24.65
2022-07-31T00:45:13.701Z,24.59
2022-07-31T00:47:43.382Z,24.62
2022-07-31T00:50:12.638Z,24.51
2022-07-31T00:52:40.733Z,24.58
2022-07-31T00:55:09.858Z,24.57
2022-07-31T00:57:37.918Z,24.50
2022-07-31T01:00:07.793Z,24.49
2022-07-31T01:02:36.322Z,24.48
2022-07-31T01:05:06.557Z,24.50
2022-07-31T01:07:34.588Z,24.52
2022-07-31T01:10:07.568Z,24.45
2022-07-31T01:12:44.667Z,24.42
2022-07-31T01:15:15.304Z,24.40
2022-07-31T01:17:47.872Z,24.32
2022-07-31T01:20:17.797Z,24.29
2022-07-31T01:23:10.326Z,24.22
2022-07-31T01:25:46.582Z,24.23
2022-07-31T01:28:23.073Z,24.25
2022-07-31T01:31:17.160Z,24.24
2022-07-31T01:33:53.401Z,24.29
2022-07-31T01:36:26.761Z,24.26
2022-07-31T01:38:58.304Z,24.17
2022-07-31T01:41:31.685Z,24.24
2022-07-31T01:44:01.830Z,24.18
2022-07-31T01:46:37.347Z,24.06
2022-07-31T01:49:11.118Z,24.07
2022-07-31T01:51:41.431Z,23.97
2022-07-31T01:54:10.890Z,23.87
2022-07-31T01:56:40.205Z,23.90
2022-07-31T01:59:20.087Z,23.85
2022-07-31T02:01:53.400Z,23.89
2022-07-31T02:04:22.841Z,23.87
2022-07-31T02:06:52.212Z,23.91
2022-07-31T02:09:22.496Z,23.91
2022-07-31T02:11:54.454Z,23.85
2022-07-31T02:14:24.206Z,23.84
2022-07-31T02:16:54.057Z,23.85
2022-07-31T02:19:23.392Z,23.86
2022-07-31T02:21:51.540Z,23.90
2022-07-31T02:24:19.857Z,23.87
2022-07-31T02:26:48.678Z,23.89
2022-07-31T02:29:19.848Z,23.90
2022-07-31T02:31:48.913Z,23.83
2022-07-31T02:34:33.794Z,23.79
2022-07-31T02:37:02.874Z,23.73
2022-07-31T02:39:33.274Z,23.77
2022-07-31T02:42:02.579Z,23.66
2022-07-31T02:44:34.898Z,23.68
2022-07-31T02:47:05.412Z,23.68
2022-07-31T02:49:35.655Z,23.62
2022-07-31T02:52:06.101Z,23.59
2022-07-31T02:54:36.689Z,23.59
2022-07-31T02:57:04.985Z,23.52
2022-07-31T02:59:33.199Z,23.50
2022-07-31T03:02:01.432Z,23.45
2022-07-31T03:04:30.001Z,23.49
2022-07-31T03:07:00.645Z,23.49
2022-07-31T03:09:28.715Z,23.44
2022-07-31T03:11:56.757Z,23.44
2022-07-31T03:14:35.140Z,23.46
2022-07-31T03:17:05.750Z,23.44
2022-07-31T03:19:35.085Z,23.45
2022-07-31T03:22:05.172Z,23.41
2022-07-31T03:24:33.654Z,23.38
2022-07-31T03:27:02.294Z,23.39
2022-07-31T03:29:42.393Z,23.36
2022-07-31T03:32:11.012Z,23.38
2022-07-31T03:34:39.664Z,23.39
2022-07-31T03:37:10.387Z,23.39
2022-07-31T03:39:38.419Z,23.39
2022-07-31T03:42:12.885Z,23.39
2022-07-31T03:44:48.570Z,23.42
2022-07-31T03:47:16.894Z,23.45
2022-07-31T03:49:45.261Z,23.46
2022-07-31T03:52:15.065Z,23.49
2022-07-31T03:54:43.767Z,23.52
2022-07-31T03:57:13.009Z,23.52
2022-07-31T03:59:47.961Z,23.55
2022-07-31T04:02:18.914Z,23.58
2022-07-31T04:04:47.171Z,23.63
2022-07-31T04:07:17.255Z,23.67
2022-07-31T04:09:45.320Z,23.71
2022-07-31T04:12:13.340Z,23.73
2022-07-31T04:14:41.355Z,23.78
2022-07-31T04:17:09.808Z,23.75
2022-07-31T04:19:38.366Z,23.76
2022-07-31T04:22:06.974Z,23.77
2022-07-31T04:24:36.689Z,23.76
2022-07-31T04:27:10.697Z,23.76
2022-07-31T04:29:38.964Z,23.73
2022-07-31T04:32:07.445Z,23.73
2022-07-31T04:34:36.144Z,23.69
2022-07-31T04:37:04.294Z,23.73
2022-07-31T04:39:32.315Z,23.74
2022-07-31T04:42:01.931Z,23.70
2022-07-31T04:44:30.397Z,23.70
2022-07-31T04:47:00.601Z,23.73
2022-07-31T04:49:28.685Z,23.70
2022-07-31T04:51:56.706Z,23.70
2022-07-31T04:54:25.256Z,23.70
2022-07-31T04:56:53.427Z,23.63
2022-07-31T04:59:24.080Z,23.61
2022-07-31T05:02:12.148Z,23.62
2022-07-31T05:04:40.375Z,23.62
2022-07-31T05:07:08.399Z,23.60
2022-07-31T05:09:36.649Z,23.55
2022-07-31T05:12:05.496Z,23.54
2022-07-31T05:14:35.301Z,23.59
2022-07-31T05:17:03.327Z,23.62
2022-07-31T05:19:31.371Z,23.65
2022-07-31T05:22:03.532Z,23.64
2022-07-31T05:24:32.931Z,23.72
2022-07-31T05:27:02.536Z,23.75
2022-07-31T05:29:31.185Z,23.69
2022-07-31T05:32:01.336Z,23.68
2022-07-31T05:34:30.776Z,23.71
2022-07-31T05:36:59.056Z,23.77
2022-07-31T05:39:28.265Z,23.74
2022-07-31T05:41:56.414Z,23.77
2022-07-31T05:44:24.764Z,23.79
2022-07-31T05:49:22.423Z,23.82
2022-07-31T05:51:54.349Z,23.82
2022-07-31T05:54:22.794Z,23.82
2022-07-31T05:56:50.828Z,23.94
2022-07-31T05:59:18.946Z,24.08
2022-07-31T06:01:47.623Z,23.96
2022-07-31T06:04:15.681Z,24.16
2022-07-31T06:06:45.060Z,24.19
2022-07-31T06:09:13.175Z,24.11
2022-07-31T06:11:41.160Z,24.07
2022-07-31T06:14:09.680Z,24.05
2022-07-31T06:16:37.882Z,24.06
2022-07-31T06:19:05.880Z,24.11
2022-07-31T06:21:33.923Z,24.11
2022-07-31T06:24:03.339Z,24.19
2022-07-31T06:26:31.513Z,24.23
2022-07-31T06:28:59.599Z,24.42
2022-07-31T06:31:27.607Z,24.37
2022-07-31T06:33:55.724Z,24.47
2022-07-31T06:36:23.809Z,24.59
2022-07-31T06:38:51.821Z,24.59
2022-07-31T06:41:35.037Z,24.51
2022-07-31T06:44:03.040Z,24.39
2022-07-31T06:46:31.139Z,24.65
2022-07-31T06:48:59.247Z,24.71
2022-07-31T06:51:30.986Z,24.77
2022-07-31T06:54:00.209Z,24.88
2022-07-31T06:56:29.998Z,24.83
2022-07-31T06:58:58.285Z,24.98
2022-07-31T07:01:26.425Z,24.90
2022-07-31T07:03:55.095Z,24.98
2022-07-31T07:06:23.275Z,25.03
2022-07-31T07:08:52.952Z,25.20
2022-07-31T07:11:21.165Z,25.87
2022-07-31T07:13:50.897Z,26.40
2022-07-31T07:16:19.058Z,26.91
2022-07-31T07:18:47.177Z,27.47
2022-07-31T07:21:15.299Z,27.42
2022-07-31T07:23:43.886Z,27.23
2022-07-31T07:26:11.993Z,27.26
2022-07-31T07:28:40.505Z,27.20
2022-07-31T07:31:09.906Z,27.32
2022-07-31T07:33:40.178Z,27.36
2022-07-31T07:36:22.350Z,27.33
2022-07-31T07:38:53.731Z,27.19
2022-07-31T07:41:24.085Z,27.27
2022-07-31T07:43:52.748Z,27.20
2022-07-31T07:46:23.400Z,27.21
2022-07-31T07:48:52.031Z,27.06
2022-07-31T07:51:21.062Z,27.17
2022-07-31T07:53:49.214Z,27.21
2022-07-31T07:56:17.467Z,27.27
2022-07-31T07:58:45.710Z,27.34
2022-07-31T08:01:13.950Z,27.46
2022-07-31T08:03:49.172Z,27.52
2022-07-31T08:06:20.295Z,28.18
2022-07-31T08:08:48.362Z,28.75
2022-07-31T08:11:17.269Z,29.19
2022-07-31T08:13:50.088Z,29.50
2022-07-31T08:16:19.790Z,29.85
2022-07-31T08:18:49.183Z,30.05
2022-07-31T08:21:17.233Z,30.23
2022-07-31T08:23:45.261Z,30.58
2022-07-31T08:26:13.936Z,30.87
2022-07-31T08:28:50.381Z,30.96
2022-07-31T08:31:19.789Z,31.00
2022-07-31T08:33:49.198Z,30.92
2022-07-31T08:36:17.413Z,30.96
2022-07-31T08:38:45.422Z,31.20
2022-07-31T08:41:14.807Z,31.13
2022-07-31T08:44:00.113Z,31.14
2022-07-31T08:46:33.596Z,31.25
2022-07-31T08:49:04.586Z,31.45
2022-07-31T08:51:51.552Z,31.63
2022-07-31T08:54:22.006Z,31.94
2022-07-31T08:56:52.603Z,32.01
2022-07-31T08:59:22.174Z,32.16
2022-07-31T09:01:50.466Z,32.11
2022-07-31T09:04:19.967Z,32.19
2022-07-31T09:06:48.054Z,32.41
2022-07-31T09:09:17.107Z,32.38
2022-07-31T09:11:49.431Z,32.49
2022-07-31T09:14:26.773Z,32.72
2022-07-31T09:16:55.315Z,32.90
2022-07-31T09:19:52.544Z,33.02
2022-07-31T09:22:22.176Z,33.33
2022-07-31T09:24:50.485Z,33.22
2022-07-31T09:27:18.788Z,33.25
2022-07-31T09:29:49.791Z,33.19
2022-07-31T09:32:19.654Z,33.12
2022-07-31T09:34:49.539Z,32.98
2022-07-31T09:37:19.830Z,32.61
2022-07-31T09:39:52.797Z,32.05
2022-07-31T09:42:22.021Z,31.84
2022-07-31T09:44:51.821Z,31.90
2022-07-31T09:47:24.030Z,32.08
2022-07-31T09:49:58.403Z,31.74
2022-07-31T09:52:27.895Z,31.63
2022-07-31T09:55:16.197Z,31.52
2022-07-31T09:57:53.707Z,31.30
2022-07-31T10:00:23.461Z,30.95
2022-07-31T10:02:54.019Z,31.03
2022-07-31T10:05:25.483Z,31.28
2022-07-31T10:07:55.416Z,31.31
2022-07-31T10:10:24.672Z,31.55
2022-07-31T10:12:55.352Z,32.06
2022-07-31T10:15:24.905Z,32.32
2022-07-31T10:17:53.850Z,32.17
2022-07-31T10:20:26.085Z,32.15
2022-07-31T10:22:57.727Z,32.13
2022-07-31T10:25:28.717Z,32.29
2022-07-31T10:27:57.848Z,32.53
2022-07-31T10:30:28.378Z,32.75
2022-07-31T10:32:58.794Z,32.87
2022-07-31T10:35:29.088Z,33.30
2022-07-31T10:38:02.753Z,33.54
2022-07-31T10:40:49.162Z,33.18
2022-07-31T10:43:24.673Z,33.09
2022-07-31T10:45:55.191Z,32.83
2022-07-31T10:48:24.364Z,32.82
2022-07-31T10:51:04.228Z,32.61
2022-07-31T10:53:51.072Z,32.40
2022-07-31T10:56:20.415Z,32.46
2022-07-31T10:58:49.986Z,32.69
2022-07-31T11:01:18.647Z,32.97
2022-07-31T11:03:48.501Z,33.12
2022-07-31T11:06:18.982Z,33.41
2022-07-31T11:08:49.239Z,33.71
2022-07-31T11:11:17.395Z,33.78
2022-07-31T11:13:50.107Z,33.54
2022-07-31T11:16:18.222Z,33.54
2022-07-31T11:18:57.466Z,33.57
2022-07-31T11:21:39.030Z,33.54
2022-07-31T11:24:14.777Z,33.65
2022-07-31T11:26:52.493Z,33.85
2022-07-31T11:30:00.870Z,34.02
2022-07-31T11:32:25.078Z,34.25
2022-07-31T11:34:55.799Z,34.08
2022-07-31T11:37:37.511Z,34.03
2022-07-31T11:40:15.335Z,33.71
2022-07-31T11:42:44.740Z,34.04
2022-07-31T11:45:15.112Z,33.95
2022-07-31T11:48:11.566Z,33.73
2022-07-31T11:50:41.139Z,33.43
2022-07-31T11:53:11.147Z,32.93
2022-07-31T11:55:47.553Z,32.27
2022-07-31T11:58:16.815Z,32.19
2022-07-31T12:00:52.883Z,32.09
2022-07-31T12:03:22.536Z,31.80
2022-07-31T12:05:52.542Z,31.71
2022-07-31T12:08:22.885Z,31.73
2022-07-31T12:10:53.553Z,31.43
2022-07-31T12:13:23.479Z,31.18
2022-07-31T12:15:59.413Z,31.15
2022-07-31T12:18:28.353Z,30.83
2022-07-31T12:20:58.671Z,30.96
2022-07-31T12:23:40.453Z,31.15
2022-07-31T12:26:12.272Z,30.91
2022-07-31T12:28:40.434Z,30.98
2022-07-31T12:31:08.525Z,31.17
2022-07-31T12:33:45.719Z,31.27
2022-07-31T12:36:15.270Z,31.53
2022-07-31T12:38:48.978Z,31.47
2022-07-31T12:41:17.673Z,31.66
2022-07-31T12:43:51.906Z,31.71
2022-07-31T12:46:22.035Z,31.86
2022-07-31T12:48:50.915Z,31.83
2022-07-31T12:51:43.943Z,31.86
2022-07-31T12:54:10.262Z,31.74
2022-07-31T12:56:39.550Z,31.80
2022-07-31T12:59:08.550Z,31.56
2022-07-31T13:01:36.916Z,31.72
2022-07-31T13:04:08.064Z,31.68
2022-07-31T13:06:48.701Z,31.53
2022-07-31T13:09:18.723Z,31.47
2022-07-31T13:11:48.296Z,31.60
2022-07-31T13:14:17.261Z,31.56
2022-07-31T13:16:45.389Z,31.37
2022-07-31T13:19:14.165Z,31.34
2022-07-31T13:21:49.098Z,31.34
2022-07-31T13:24:20.360Z,31.41
2022-07-31T13:26:48.646Z,31.43
2022-07-31T13:29:17.503Z,31.34
2022-07-31T13:31:45.857Z,31.57
2022-07-31T13:34:13.915Z,31.46
2022-07-31T13:36:42.052Z,31.53
2022-07-31T13:39:10.822Z,31.35
2022-07-31T13:41:40.525Z,31.38
2022-07-31T13:44:09.572Z,31.39
2022-07-31T13:46:37.938Z,31.40
2022-07-31T13:49:08.660Z,31.49
2022-07-31T13:51:37.289Z,31.43
2022-07-31T13:54:05.851Z,31.45
2022-07-31T13:56:39.532Z,31.39
2022-07-31T13:59:13.512Z,31.34
2022-07-31T14:02:02.741Z,31.17
2022-07-31T14:04:32.296Z,31.25
2022-07-31T14:07:03.366Z,30.87
2022-07-31T14:09:34.297Z,31.02
2022-07-31T14:12:03.679Z,30.94
2022-07-31T14:14:34.208Z,30.97
2022-07-31T14:17:02.231Z,30.96
2022-07-31T14:19:30.278Z,30.50
2022-07-31T14:22:11.124Z,30.57
2022-07-31T14:24:40.943Z,30.63
2022-07-31T14:27:08.957Z,30.48
2022-07-31T14:29:38.507Z,30.52
2022-07-31T14:32:07.537Z,30.37
2022-07-31T14:34:36.120Z,30.39
2022-07-31T14:37:04.893Z,30.30
2022-07-31T14:39:33.194Z,30.31
2022-07-31T14:42:01.352Z,30.31
2022-07-31T14:44:31.025Z,30.11
2022-07-31T14:47:00.414Z,30.25
2022-07-31T14:50:07.192Z,30.17
2022-07-31T14:52:17.478Z,30.36
2022-07-31T14:54:45.478Z,30.36
2022-07-31T14:57:13.892Z,30.43
2022-07-31T14:59:50.147Z,30.35
2022-07-31T15:02:22.565Z,30.36
2022-07-31T15:04:51.221Z,30.29
2022-07-31T15:07:34.789Z,30.29
2022-07-31T15:10:04.831Z,30.20
2022-07-31T15:12:33.147Z,30.21
2022-07-31T15:15:01.236Z,30.06
2022-07-31T15:17:30.852Z,30.02
2022-07-31T15:19:58.851Z,30.01
2022-07-31T15:22:26.844Z,29.87
2022-07-31T15:24:54.831Z,30.08
2022-07-31T15:27:24.219Z,29.69
2022-07-31T15:30:04.404Z,29.83
2022-07-31T15:32:36.801Z,29.94
2022-07-31T15:35:05.445Z,30.14
2022-07-31T15:37:36.566Z,29.98
2022-07-31T15:40:07.183Z,29.97
2022-07-31T15:42:38.371Z,29.98
2022-07-31T15:45:08.045Z,30.16
2022-07-31T15:47:37.574Z,30.16
2022-07-31T15:50:06.685Z,29.96
2022-07-31T15:52:34.716Z,29.84
2022-07-31T15:55:02.838Z,29.49
2022-07-31T15:57:31.012Z,29.35
2022-07-31T15:59:59.174Z,29.45
2022-07-31T16:02:27.264Z,29.41
2022-07-31T16:05:11.482Z,29.34
2022-07-31T16:08:29.264Z,29.36
2022-07-31T16:10:33.245Z,29.33
2022-07-31T16:13:01.449Z,29.21
2022-07-31T16:15:29.543Z,29.02
2022-07-31T16:17:57.605Z,28.69
2022-07-31T16:20:27.391Z,28.71
2022-07-31T16:22:58.123Z,28.68
2022-07-31T16:25:27.261Z,28.62
2022-07-31T16:27:55.682Z,28.58
2022-07-31T16:30:26.319Z,28.57
2022-07-31T16:32:55.012Z,28.62
2022-07-31T16:35:23.179Z,28.45
2022-07-31T16:37:53.706Z,28.54
2022-07-31T16:40:30.600Z,28.60
2022-07-31T16:43:02.104Z,28.62
2022-07-31T16:45:31.740Z,28.53
2022-07-31T16:47:59.926Z,28.60
2022-07-31T16:50:27.957Z,28.54
2022-07-31T16:52:57.408Z,28.41
2022-07-31T16:55:59.553Z,28.40
2022-07-31T16:58:16.690Z,28.43
2022-07-31T17:00:44.793Z,28.34
2022-07-31T17:04:00.369Z,28.35
2022-07-31T17:06:00.850Z,28.27
2022-07-31T17:08:30.246Z,27.99
2022-07-31T17:10:58.285Z,27.81
2022-07-31T17:13:26.297Z,27.94
2022-07-31T17:15:54.294Z,27.82
2022-07-31T17:18:25.386Z,27.75
2022-07-31T17:20:56.019Z,27.62
2022-07-31T17:23:43.413Z,27.50
2022-07-31T17:26:21.655Z,27.45
2022-07-31T17:28:51.373Z,27.30
2022-07-31T17:31:19.925Z,27.02
2022-07-31T17:33:58.344Z,27.05
2022-07-31T17:36:31.143Z,26.75
2022-07-31T17:38:59.230Z,26.46
2022-07-31T17:41:28.734Z,26.51
2022-07-31T17:43:56.774Z,26.28
2022-07-31T17:46:34.458Z,26.14
2022-07-31T17:49:04.609Z,26.10
2022-07-31T17:51:33.259Z,26.10
2022-07-31T17:54:01.439Z,26.09
2022-07-31T17:56:31.021Z,26.13
2022-07-31T17:59:04.626Z,25.86
2022-07-31T18:01:33.753Z,25.76
2022-07-31T18:04:02.480Z,25.71
2022-07-31T18:06:31.233Z,25.77
2022-07-31T18:08:59.641Z,25.79
2022-07-31T18:11:28.200Z,25.75
2022-07-31T18:14:00.879Z,25.76
2022-07-31T18:16:31.434Z,25.80
2022-07-31T18:18:59.595Z,25.77
2022-07-31T18:21:27.708Z,25.77
2022-07-31T18:23:55.718Z,25.76
2022-07-31T18:26:23.806Z,25.70
2022-07-31T18:28:51.783Z,25.63
2022-07-31T18:31:34.772Z,25.56
2022-07-31T18:34:04.495Z,25.40
2022-07-31T18:36:32.781Z,24.83
2022-07-31T18:39:00.948Z,24.73
2022-07-31T18:41:29.758Z,24.93
2022-07-31T18:43:58.268Z,24.91
2022-07-31T18:46:27.899Z,24.92
2022-07-31T18:48:56.914Z,24.83
2022-07-31T18:51:25.544Z,24.70
2022-07-31T18:53:54.858Z,24.69
2022-07-31T18:56:23.997Z,24.61
2022-07-31T18:58:52.431Z,24.53
2022-07-31T19:01:21.014Z,24.39
2022-07-31T19:03:52.410Z,24.36
2022-07-31T19:06:20.662Z,24.28
2022-07-31T19:08:49.677Z,24.20
2022-07-31T19:11:17.843Z,24.27
2022-07-31T19:13:46.243Z,24.34
2022-07-31T19:16:15.728Z,24.21
2022-07-31T19:18:44.039Z,24.13
2022-07-31T19:21:23.665Z,23.97
2022-07-31T19:24:01.670Z,23.90
2022-07-31T19:26:29.742Z,23.88
2022-07-31T19:28:57.926Z,23.84
2022-07-31T19:31:25.956Z,23.84
2022-07-31T19:33:53.969Z,23.75
2022-07-31T19:36:23.332Z,23.79
2022-07-31T19:38:51.415Z,23.67
2022-07-31T19:41:19.390Z,23.54
2022-07-31T19:43:47.426Z,23.31
2022-07-31T19:46:15.440Z,23.32
2022-07-31T19:48:45.042Z,23.33
2022-07-31T19:51:14.296Z,23.29
2022-07-31T19:53:44.628Z,23.14
2022-07-31T19:56:19.890Z,23.14
2022-07-31T19:58:49.424Z,23.03
2022-07-31T20:01:20.215Z,23.06
2022-07-31T20:03:49.816Z,22.97
2022-07-31T20:06:18.023Z,22.86
2022-07-31T20:08:49.190Z,22.63
2022-07-31T20:11:17.904Z,22.61
2022-07-31T20:13:45.970Z,22.57
2022-07-31T20:16:15.167Z,22.52
2022-07-31T20:18:43.223Z,22.48
2022-07-31T20:21:11.850Z,22.27
2022-07-31T20:23:41.743Z,22.26
2022-07-31T20:26:13.877Z,22.21
2022-07-31T20:28:42.624Z,21.97
2022-07-31T20:31:15.980Z,22.06
2022-07-31T20:33:57.080Z,22.06
2022-07-31T20:36:26.941Z,22.14
2022-07-31T20:38:55.116Z,22.08
2022-07-31T20:41:24.549Z,22.00
2022-07-31T20:43:52.577Z,21.87
2022-07-31T20:46:20.623Z,21.84
2022-07-31T20:48:50.101Z,21.79
2022-07-31T20:51:20.613Z,21.73
2022-07-31T20:53:49.027Z,21.68
2022-07-31T20:56:17.577Z,21.52
2022-07-31T20:58:51.392Z,21.59
2022-07-31T21:01:21.178Z,21.69
2022-07-31T21:03:49.840Z,21.73
2022-07-31T21:06:18.045Z,21.76
2022-07-31T21:08:46.112Z,21.69
2022-07-31T21:11:14.163Z,21.76
2022-07-31T21:13:42.185Z,21.74
2022-07-31T21:16:11.619Z,21.68
2022-07-31T21:18:43.278Z,21.65
2022-07-31T21:21:11.794Z,21.64
2022-07-31T21:23:40.003Z,21.69
2022-07-31T21:26:08.806Z,21.64
2022-07-31T21:28:37.464Z,21.60
2022-07-31T21:31:06.262Z,21.57
2022-07-31T21:33:36.406Z,21.57
2022-07-31T21:36:05.976Z,21.46
2022-07-31T21:38:36.107Z,21.42
2022-07-31T21:41:04.680Z,21.38
2022-07-31T21:43:35.280Z,21.36
2022-07-31T21:46:23.823Z,21.28
2022-07-31T21:48:54.065Z,21.35
2022-07-31T21:51:24.434Z,21.28
2022-07-31T21:53:52.519Z,21.34
2022-07-31T21:56:20.574Z,21.32
2022-07-31T21:58:48.669Z,21.23
2022-07-31T22:01:16.745Z,21.26
2022-07-31T22:03:44.735Z,21.26
2022-07-31T22:06:31.809Z,21.36
2022-07-31T22:08:59.785Z,21.29
2022-07-31T22:11:27.846Z,21.16
2022-07-31T22:13:55.914Z,21.21
2022-07-31T22:16:23.925Z,21.10
2022-07-31T22:18:52.080Z,21.21
2022-07-31T22:21:22.102Z,21.22
2022-07-31T22:23:50.597Z,21.22
2022-07-31T22:26:18.938Z,21.22
2022-07-31T22:28:48.306Z,21.22
2022-07-31T22:31:16.769Z,21.08
2022-07-31T22:33:45.010Z,21.12
2022-07-31T22:36:13.383Z,21.00
2022-07-31T22:38:44.417Z,20.87
2022-07-31T22:41:13.356Z,20.86
2022-07-31T22:44:10.831Z,20.89
2022-07-31T22:46:32.748Z,20.92
2022-07-31T22:49:01.354Z,20.82
2022-07-31T22:51:30.569Z,20.90
2022-07-31T22:53:59.989Z,20.75
2022-07-31T22:56:27.963Z,20.72
2022-07-31T22:58:56.004Z,20.81
2022-07-31T23:01:24.096Z,20.75
2022-07-31T23:03:53.751Z,20.55
2022-07-31T23:06:31.901Z,20.66
2022-07-31T23:09:02.834Z,20.60
2022-07-31T23:11:31.215Z,20.60
2022-07-31T23:13:59.247Z,20.54
2022-07-31T23:16:27.560Z,20.59
2022-07-31T23:18:55.655Z,20.78
2022-07-31T23:21:23.714Z,20.72
2022-07-31T23:23:51.906Z,20.67
2022-07-31T23:26:24.127Z,20.58
2022-07-31T23:28:53.223Z,20.56
2022-07-31T23:31:22.404Z,20.65
2022-07-31T23:33:51.670Z,20.66
2022-07-31T23:36:19.780Z,20.48
2022-07-31T23:38:47.811Z,20.54
2022-07-31T23:41:36.264Z,20.51
2022-07-31T23:44:05.169Z,20.44
2022-07-31T23:46:37.878Z,20.58
2022-07-31T23:49:07.582Z,20.54
2022-07-31T23:51:35.632Z,20.63
2022-07-31T23:54:06.172Z,20.59
2022-07-31T23:56:34.337Z,20.56
2022-07-31T23:59:02.320Z,20.63
